Lakewood, CO (80226)

12:01 PM MST on February 06, 2016 (GMT -0700)
Lakewood | | Change Station
CLOSE
Current Station
Personal Weather Station
Location: Denver, CO
Elevation: 5582 ft
Nearby Weather Stations

Elev 5582 ft 39.70 °N, 105.11 °W | Updated 3 seconds ago

Partly Cloudy
Partly Cloudy
48.9 °F
Feels Like 49 °F
N
0.0
Wind Variable Wind from NW
Gusts 14.0 mph

Today
High -- | Low -- °F
--% Chance of Precip.
Yesterday
High -- | Low -- °F
Precip. -- in
Pressure 30.15 in
Visibility 70.0 miles
Clouds Mostly Cloudy 15000 ft
Windchill 49 °F
Dew Point 19 °F
Humidity 30%
Rainfall 0.02 in
Snow Depth Not available.
7:03 AM 5:25 PM
Waning Crescent, 4% visible
METAR KBJC 061845Z 28023G27KT 70SM BKN150 M07/M08 A3015
Pressure 30.15 in
Visibility 70.0 miles
Clouds Mostly Cloudy 15000 ft
Windchill 49 °F
Dew Point 19 °F
Humidity 30%
Rainfall 0.02 in
Snow Depth Not available.
7:03 AM 5:25 PM
Waning Crescent, 4% visible
METAR KBJC 061845Z 28023G27KT 70SM BKN150 M07/M08 A3015

10-Day Weather Forecast

Almanac

Astronomy

Feb. 06, 2016 Rise Set
Actual Time
Civil Twilight
Nautical Twilight
Astronomical Twilight
Moon
Length of Visible Light
Length of Day
Tomorrow will be .
, % of the Moon is Illuminated

Today's Extremes

State Highs State Lows

Community

WunderPhotos

Upload Photos

1,891,033 photos uploaded!

WunderBlog® & News

Nearby

Air Quality

  Air Quality AQ Index Pollutant
Not available.

Snow Depth

Station Depth Elevation

Earthquake Activity

City Distance Mag. Time & Date
Minimum magnitude displayed is 2.5.

Coastal Water Temperatures

Place Temperature

Stations

Nearby Weather Stations

Station Location Temp. Windchill Dew Point Humidity Wind Precip. Elev Updated Type
                   

Watches & Warnings

There are currently no watches in effect.